Time;durP1;ratioP1;P1;durP2;ratioP2;P2;SDS_P1;SDS_P2;PMS_P1;PMS_P2;Temp;Humidity;BMP_temperature;BMP_pressure;BME280_temperature;BME280_humidity;BME280_pressure;Samples;Min_cycle;Max_cycle;Signal;HPM_P1;HPM_P2
2022/11/03 00:01:38;;;;;;;1999.90;999.90;;;10.90;99.90;;;;;;5032613;28;20407;-65
2022/11/03 00:04:05;;;;;;;1999.90;999.90;;;10.90;99.90;;;;;;5032441;28;20517;-66
2022/11/03 00:06:31;;;;;;;1999.90;999.90;;;10.90;99.90;;;;;;5032516;28;20407;-66
2022/11/03 00:08:58;;;;;;;1999.90;999.90;;;11.00;99.90;;;;;;5031926;28;20412;-66
2022/11/03 00:11:23;;;;;;;1999.90;999.90;;;11.00;99.90;;;;;;5032631;28;20434;-65
2022/11/03 00:13:49;;;;;;;1999.90;999.90;;;11.00;99.90;;;;;;5032068;28;20431;-66
2022/11/03 00:16:14;;;;;;;1999.90;999.90;;;11.00;99.90;;;;;;5031928;28;20204;-66
2022/11/03 00:18:40;;;;;;;1999.90;999.90;;;11.00;99.90;;;;;;5032203;28;20572;-65
2022/11/03 00:21:08;;;;;;;1999.90;999.90;;;11.00;99.90;;;;;;5032177;28;20665;-66
2022/11/03 00:23:36;;;;;;;1999.90;999.90;;;11.00;99.90;;;;;;5032361;28;20258;-66
2022/11/03 00:26:04;;;;;;;1999.90;999.90;;;10.90;99.90;;;;;;5032349;28;20425;-66
2022/11/03 00:28:31;;;;;;;1999.90;999.90;;;10.90;99.90;;;;;;5031583;28;20931;-66
2022/11/03 00:30:57;;;;;;;1999.90;999.90;;;10.90;99.90;;;;;;5031840;28;20418;-66
2022/11/03 00:33:25;;;;;;;1999.90;999.90;;;10.80;99.90;;;;;;5031656;28;20423;-66
2022/11/03 00:35:56;;;;;;;1999.90;999.90;;;10.80;99.90;;;;;;5031639;28;20393;-66
2022/11/03 00:38:22;;;;;;;1999.90;999.90;;;10.80;99.90;;;;;;5031654;28;20407;-66
2022/11/03 00:40:59;;;;;;;1999.90;999.90;;;10.70;99.90;;;;;;5031986;28;20418;-66
2022/11/03 00:43:26;;;;;;;1999.90;999.90;;;10.80;99.90;;;;;;5031757;28;20237;-66
2022/11/03 00:45:52;;;;;;;1999.90;999.90;;;10.80;99.90;;;;;;5031886;28;20402;-65
2022/11/03 00:48:30;;;;;;;1999.90;999.90;;;10.80;99.90;;;;;;5031982;28;20406;-65
2022/11/03 00:51:13;;;;;;;1999.90;999.90;;;10.80;99.90;;;;;;5032615;28;20418;-65
2022/11/03 00:53:43;;;;;;;1999.90;999.90;;;10.80;99.90;;;;;;5032155;28;20435;-65
2022/11/03 00:56:15;;;;;;;1999.90;999.90;;;10.70;99.90;;;;;;5031775;28;20473;-66
2022/11/03 00:58:41;;;;;;;1999.90;999.90;;;10.70;99.90;;;;;;5031526;28;20490;-66
2022/11/03 01:01:10;;;;;;;1999.90;999.90;;;10.70;99.90;;;;;;5034530;28;20514;-66
2022/11/03 01:03:38;;;;;;;1999.90;999.90;;;10.70;99.90;;;;;;5035599;28;20509;-66
2022/11/03 01:08:55;;;;;;;1999.90;999.90;;;10.60;99.90;;;;;;5035283;28;20517;-66
2022/11/03 01:14:09;;;;;;;1999.90;999.90;;;10.70;99.90;;;;;;5035480;28;20211;-66
2022/11/03 01:16:34;;;;;;;1999.90;999.90;;;10.70;99.90;;;;;;5035025;28;20418;-66
2022/11/03 01:19:00;;;;;;;1999.90;999.90;;;10.70;99.90;;;;;;5035415;28;20503;-66
2022/11/03 01:21:26;;;;;;;1999.90;999.90;;;10.70;99.90;;;;;;5035167;28;20168;-66
2022/11/03 01:23:51;;;;;;;1999.90;999.90;;;10.70;99.90;;;;;;5034886;28;20735;-66
2022/11/03 01:26:17;;;;;;;1999.90;999.90;;;10.70;99.90;;;;;;5034931;28;20243;-66
2022/11/03 01:28:45;;;;;;;1999.90;999.90;;;10.70;99.90;;;;;;5034761;28;20175;-66
2022/11/03 01:31:13;;;;;;;1999.90;999.90;;;10.70;99.90;;;;;;5034883;28;20538;-65
2022/11/03 01:33:38;;;;;;;1999.90;999.90;;;10.70;99.90;;;;;;5035149;28;20429;-66
2022/11/03 01:36:04;;;;;;;1999.90;999.90;;;10.60;99.90;;;;;;5034979;28;20447;-66
2022/11/03 01:38:35;;;;;;;1999.90;999.90;;;10.60;99.90;;;;;;5034513;28;20218;-66
2022/11/03 01:41:01;;;;;;;1999.90;999.90;;;10.60;99.90;;;;;;5034867;28;20172;-66
2022/11/03 01:43:30;;;;;;;1999.90;999.90;;;10.60;99.90;;;;;;5034498;28;20516;-66
2022/11/03 01:46:17;;;;;;;1999.90;999.90;;;10.60;99.90;;;;;;5034430;28;20490;-66
2022/11/03 01:48:55;;;;;;;1999.90;999.90;;;10.60;99.90;;;;;;5034412;28;20403;-66
2022/11/03 01:51:22;;;;;;;1999.90;999.90;;;10.60;99.90;;;;;;5034651;28;20407;-66
2022/11/03 01:53:50;;;;;;;1999.90;999.90;;;10.60;99.90;;;;;;5034363;28;20449;-66
2022/11/03 01:56:17;;;;;;;1999.90;999.90;;;10.60;99.90;;;;;;5034309;28;20859;-66
2022/11/03 01:58:48;;;;;;;1999.90;999.90;;;10.70;99.90;;;;;;5034394;28;20418;-66
2022/11/03 02:01:14;;;;;;;1999.90;999.90;;;10.70;99.90;;;;;;5034579;28;20777;-66
2022/11/03 02:03:48;;;;;;;1999.90;999.90;;;10.70;99.90;;;;;;5048384;28;20488;-65
2022/11/03 02:06:15;;;;;;;1999.90;999.90;;;10.70;99.90;;;;;;5054282;28;20448;-65
2022/11/03 02:08:59;;;;;;;1999.90;999.90;;;10.70;99.90;;;;;;5053910;28;20466;-66
2022/11/03 02:14:12;;;;;;;1999.90;999.90;;;10.90;99.90;;;;;;5054214;28;20433;-65
2022/11/03 02:16:42;;;;;;;1999.90;999.90;;;10.90;99.90;;;;;;5053722;28;20449;-66
2022/11/03 02:19:19;;;;;;;1999.90;999.90;;;10.90;99.90;;;;;;5053851;28;20399;-66
2022/11/03 02:21:54;;;;;;;1999.90;999.90;;;11.00;99.90;;;;;;5053803;28;20493;-66
2022/11/03 02:24:55;;;;;;;1999.90;999.90;;;11.20;99.90;;;;;;5054274;28;20802;-66
2022/11/03 02:27:21;;;;;;;1999.90;999.90;;;11.30;99.90;;;;;;4972919;28;20408;-65
2022/11/03 02:29:48;;;;;;;1999.90;999.90;;;11.30;99.90;;;;;;5037589;28;20414;-66
2022/11/03 02:32:56;;;;;;;1999.90;999.90;;;11.40;99.90;;;;;;5053651;28;20394;-66
2022/11/03 02:35:41;;;;;;;1999.90;999.90;;;11.40;99.90;;;;;;5044226;28;20543;-66
2022/11/03 02:38:12;;;;;;;1999.90;999.90;;;11.50;99.90;;;;;;5053434;28;20919;-65
2022/11/03 02:40:46;;;;;;;1999.90;999.90;;;11.50;99.90;;;;;;5053985;28;20453;-65
2022/11/03 02:43:14;;;;;;;1999.90;999.90;;;11.50;99.90;;;;;;5053823;28;20773;-66
2022/11/03 02:45:40;;;;;;;1999.90;999.90;;;11.50;99.90;;;;;;5053297;28;20892;-65
2022/11/03 02:48:07;;;;;;;1999.90;999.90;;;11.50;99.90;;;;;;5053114;28;20406;-66
2022/11/03 02:50:35;;;;;;;1999.90;999.90;;;11.50;99.90;;;;;;5053888;28;20402;-66
2022/11/03 02:53:01;;;;;;;1999.90;999.90;;;11.60;99.90;;;;;;5053389;28;20430;-66
2022/11/03 02:55:36;;;;;;;1999.90;999.90;;;11.60;99.90;;;;;;5053163;28;20448;-65
2022/11/03 02:58:25;;;;;;;1999.90;999.90;;;11.60;99.90;;;;;;5053340;28;20418;-66
2022/11/03 03:01:24;;;;;;;1999.90;999.90;;;11.60;99.90;;;;;;5053017;28;20394;-66
2022/11/03 03:03:55;;;;;;;1999.90;999.90;;;11.60;99.90;;;;;;5052963;28;20468;-66
2022/11/03 03:06:36;;;;;;;1999.90;999.90;;;11.50;99.90;;;;;;5053169;28;20808;-65
2022/11/03 03:09:24;;;;;;;1999.90;999.90;;;11.60;99.90;;;;;;5053991;28;20935;-65
2022/11/03 03:11:52;;;;;;;1999.90;999.90;;;11.60;99.90;;;;;;5053483;28;20401;-66
2022/11/03 03:14:30;;;;;;;1999.90;999.90;;;11.60;99.90;;;;;;5053160;28;20988;-65
2022/11/03 03:17:29;;;;;;;1999.90;999.90;;;11.60;99.90;;;;;;5053805;28;20409;-65
2022/11/03 03:20:05;;;;;;;1999.90;999.90;;;11.50;99.90;;;;;;5053149;28;20474;-66
2022/11/03 03:22:57;;;;;;;1999.90;999.90;;;11.50;99.90;;;;;;5051936;28;20568;-66
2022/11/03 03:25:28;;;;;;;1999.90;999.90;;;11.50;99.90;;;;;;5052783;28;20745;-66
2022/11/03 03:28:17;;;;;;;1999.90;999.90;;;11.50;99.90;;;;;;5052317;28;20496;-66
2022/11/03 03:30:45;;;;;;;1999.90;999.90;;;11.40;99.90;;;;;;5052594;28;20434;-65
2022/11/03 03:33:12;;;;;;;1999.90;999.90;;;11.40;99.90;;;;;;5053355;28;20996;-65
2022/11/03 03:35:41;;;;;;;1999.90;999.90;;;11.40;99.90;;;;;;5052359;28;20548;-66
2022/11/03 03:38:12;;;;;;;1999.90;999.90;;;11.40;99.90;;;;;;5052168;28;20403;-65
2022/11/03 03:40:41;;;;;;;1999.90;999.90;;;11.50;99.90;;;;;;5053113;28;20498;-66
2022/11/03 03:43:10;;;;;;;1999.90;999.90;;;11.50;99.90;;;;;;5052758;28;20428;-65
2022/11/03 03:45:37;;;;;;;1999.90;999.90;;;11.60;99.90;;;;;;5052212;28;20414;-66
2022/11/03 03:48:05;;;;;;;1999.90;999.90;;;11.60;99.90;;;;;;5052829;28;20906;-66
2022/11/03 03:50:34;;;;;;;1999.90;999.90;;;11.50;99.90;;;;;;5052268;28;20777;-66
2022/11/03 03:53:01;;;;;;;1999.90;999.90;;;11.50;99.90;;;;;;5052115;28;20434;-66
2022/11/03 03:55:37;;;;;;;1999.90;999.90;;;11.50;99.90;;;;;;5051930;28;20484;-66
2022/11/03 03:58:04;;;;;;;1999.90;999.90;;;11.50;99.90;;;;;;5051814;28;20430;-66
2022/11/03 04:00:30;;;;;;;1999.90;999.90;;;11.50;99.90;;;;;;5052128;28;20394;-65
2022/11/03 04:02:57;;;;;;;1999.90;999.90;;;11.40;99.90;;;;;;5051938;28;20468;-66
2022/11/03 04:05:23;;;;;;;1999.90;999.90;;;11.40;99.90;;;;;;5052036;28;20210;-66
2022/11/03 04:07:50;;;;;;;1999.90;999.90;;;11.40;99.90;;;;;;5051950;28;20407;-66
2022/11/03 04:10:17;;;;;;;1999.90;999.90;;;11.30;99.90;;;;;;5051950;28;20406;-66
2022/11/03 04:23:40;;;;;;;1999.90;999.90;;;11.40;99.90;;;;;;5051682;28;20496;-65
2022/11/03 04:26:12;;;;;;;1999.90;999.90;;;11.30;99.90;;;;;;5051797;28;20446;-65
2022/11/03 04:28:39;;;;;;;1999.90;999.90;;;11.30;99.90;;;;;;5051584;28;20637;-65
2022/11/03 04:31:09;;;;;;;1999.90;999.90;;;11.40;99.90;;;;;;5052211;28;20409;-66
2022/11/03 04:33:35;;;;;;;1999.90;999.90;;;11.30;99.90;;;;;;5052022;28;20426;-66
2022/11/03 04:36:00;;;;;;;1999.90;999.90;;;11.30;99.90;;;;;;5055814;28;20476;-66
2022/11/03 04:38:28;;;;;;;1999.90;999.90;;;11.30;99.90;;;;;;5037944;28;20641;-66
2022/11/03 04:40:56;;;;;;;1999.90;999.90;;;11.40;99.90;;;;;;5055793;28;20171;-66
2022/11/03 04:43:32;;;;;;;1999.90;999.90;;;11.40;99.90;;;;;;5056082;28;20435;-66
2022/11/03 04:45:58;;;;;;;1999.90;999.90;;;11.50;99.90;;;;;;5055570;28;20460;-66
2022/11/03 04:48:25;;;;;;;1999.90;999.90;;;11.50;99.90;;;;;;5055455;28;20403;-65
2022/11/03 04:50:53;;;;;;;1999.90;999.90;;;11.50;99.90;;;;;;5055589;28;20657;-66
2022/11/03 04:53:21;;;;;;;1999.90;999.90;;;11.50;99.90;;;;;;5055488;28;20426;-66
2022/11/03 04:55:49;;;;;;;1999.90;999.90;;;11.60;99.90;;;;;;5056044;28;20540;-65
2022/11/03 04:58:36;;;;;;;1999.90;999.90;;;11.50;99.90;;;;;;5055571;28;20402;-66
2022/11/03 05:01:03;;;;;;;1999.90;999.90;;;11.60;99.90;;;;;;5055571;28;20398;-66
2022/11/03 05:03:32;;;;;;;1999.90;999.90;;;11.60;99.90;;;;;;5056023;28;20421;-65
2022/11/03 05:06:12;;;;;;;1999.90;999.90;;;11.60;99.90;;;;;;5055832;28;20402;-65
2022/11/03 05:08:38;;;;;;;1999.90;999.90;;;11.60;99.90;;;;;;5055421;28;20401;-66
2022/11/03 05:11:29;;;;;;;1999.90;999.90;;;11.60;99.90;;;;;;5055560;28;20406;-67
2022/11/03 05:14:00;;;;;;;1999.90;999.90;;;11.60;99.90;;;;;;5055424;28;20715;-66
2022/11/03 05:16:26;;;;;;;1999.90;999.90;;;11.60;99.90;;;;;;5055061;28;20457;-66
2022/11/03 05:18:52;;;;;;;1999.90;999.90;;;11.60;99.90;;;;;;5055172;28;20407;-66
2022/11/03 05:21:21;;;;;;;1999.90;999.90;;;11.60;99.90;;;;;;5055257;28;20173;-66
2022/11/03 05:23:53;;;;;;;1999.90;999.90;;;11.50;99.90;;;;;;5054739;28;20207;-66
2022/11/03 05:26:23;;;;;;;1999.90;999.90;;;11.50;99.90;;;;;;5054868;28;20497;-65
2022/11/03 05:28:58;;;;;;;1999.90;999.90;;;11.50;99.90;;;;;;5054724;28;20499;-66
2022/11/03 05:31:27;;;;;;;1999.90;999.90;;;11.50;99.90;;;;;;5055023;28;20812;-66
2022/11/03 05:34:00;;;;;;;1999.90;999.90;;;11.50;99.90;;;;;;5054980;28;20433;-66
2022/11/03 05:36:28;;;;;;;1999.90;999.90;;;11.50;99.90;;;;;;5054688;28;20441;-66
2022/11/03 05:39:18;;;;;;;1999.90;999.90;;;11.50;99.90;;;;;;5054831;28;20417;-66
2022/11/03 05:41:44;;;;;;;1999.90;999.90;;;11.60;99.90;;;;;;5055187;28;20768;-66
2022/11/03 05:44:38;;;;;;;1999.90;999.90;;;11.60;99.90;;;;;;5055189;28;20438;-66
2022/11/03 05:47:36;;;;;;;1999.90;999.90;;;11.60;99.90;;;;;;5044581;28;20203;-66
2022/11/03 05:50:21;;;;;;;1999.90;999.90;;;11.60;99.90;;;;;;5039098;28;20414;-65
2022/11/03 05:52:48;;;;;;;1999.90;999.90;;;11.60;99.90;;;;;;5054627;28;20434;-65
2022/11/03 05:55:35;;;;;;;1999.90;999.90;;;11.50;99.90;;;;;;5054202;28;20524;-65
2022/11/03 05:58:12;;;;;;;1999.90;999.90;;;11.50;99.90;;;;;;5053939;28;20422;-66
2022/11/03 06:00:40;;;;;;;1999.90;999.90;;;11.50;99.90;;;;;;5054651;28;20402;-66
2022/11/03 06:03:06;;;;;;;1999.90;999.90;;;11.50;99.90;;;;;;5054078;28;20948;-66
2022/11/03 06:05:33;;;;;;;1999.90;999.90;;;11.40;99.90;;;;;;5054312;28;20414;-66
2022/11/03 06:08:11;;;;;;;1999.90;999.90;;;11.40;99.90;;;;;;5054028;28;20777;-66
2022/11/03 06:10:44;;;;;;;1999.90;999.90;;;11.40;99.90;;;;;;5054058;28;20397;-66
2022/11/03 06:13:26;;;;;;;1999.90;999.90;;;11.40;99.90;;;;;;5054076;28;20429;-66
2022/11/03 06:15:59;;;;;;;1999.90;999.90;;;11.40;99.90;;;;;;5054247;28;20566;-65
2022/11/03 06:18:30;;;;;;;1999.90;999.90;;;11.40;99.90;;;;;;5053961;28;20761;-65
2022/11/03 06:21:02;;;;;;;1999.90;999.90;;;11.40;99.90;;;;;;5053869;28;20402;-66
2022/11/03 06:23:28;;;;;;;1999.90;999.90;;;11.40;99.90;;;;;;5053673;28;20446;-66
2022/11/03 06:25:55;;;;;;;1999.90;999.90;;;11.40;99.90;;;;;;5053914;28;20414;-66
2022/11/03 06:28:29;;;;;;;1999.90;999.90;;;11.40;99.90;;;;;;5053742;28;20172;-66
2022/11/03 06:30:55;;;;;;;1999.90;999.90;;;11.30;99.90;;;;;;5054444;28;20487;-66
2022/11/03 06:33:28;;;;;;;1999.90;999.90;;;11.30;99.90;;;;;;5053670;28;21008;-66
2022/11/03 06:36:20;;;;;;;1999.90;999.90;;;11.30;99.90;;;;;;5053487;28;20449;-65
2022/11/03 06:38:54;;;;;;;1999.90;999.90;;;11.40;99.90;;;;;;5053374;28;20421;-66
2022/11/03 06:41:24;;;;;;;1999.90;999.90;;;11.50;99.90;;;;;;5053929;28;20863;-66
2022/11/03 06:43:50;;;;;;;1999.90;999.90;;;11.60;99.90;;;;;;5053588;28;20423;-65
2022/11/03 06:46:21;;;;;;;1999.90;999.90;;;11.60;99.90;;;;;;5053716;28;21106;-66
2022/11/03 06:48:47;;;;;;;1999.90;999.90;;;11.70;99.90;;;;;;5053297;28;20922;-65
2022/11/03 06:51:29;;;;;;;1999.90;999.90;;;11.80;99.90;;;;;;5053621;28;20410;-66
2022/11/03 06:53:58;;;;;;;1999.90;999.90;;;11.80;99.90;;;;;;5053430;28;20432;-65
2022/11/03 06:56:27;;;;;;;1999.90;999.90;;;11.80;99.90;;;;;;5053529;28;20820;-66
2022/11/03 06:58:55;;;;;;;1999.90;999.90;;;11.80;99.90;;;;;;5052247;28;20448;-66
2022/11/03 07:01:24;;;;;;;1999.90;999.90;;;11.90;99.90;;;;;;5053057;28;20408;-66
2022/11/03 07:03:58;;;;;;;1999.90;999.90;;;11.90;99.90;;;;;;5052995;28;20426;-65
2022/11/03 07:06:27;;;;;;;1999.90;999.90;;;11.90;99.90;;;;;;5053588;28;20410;-66
2022/11/03 07:08:57;;;;;;;1999.90;999.90;;;11.90;99.90;;;;;;5052680;28;20415;-66
2022/11/03 07:11:25;;;;;;;1999.90;999.90;;;11.90;99.90;;;;;;5053162;28;20447;-66
2022/11/03 07:13:52;;;;;;;1999.90;999.90;;;12.00;99.90;;;;;;5053114;28;20437;-66
2022/11/03 07:16:38;;;;;;;1999.90;999.90;;;12.00;99.90;;;;;;5052877;28;20829;-66
2022/11/03 07:19:12;;;;;;;1999.90;999.90;;;12.00;99.90;;;;;;5052758;28;20548;-66
2022/11/03 07:22:03;;;;;;;1999.90;999.90;;;12.00;99.90;;;;;;5052648;28;20409;-66
2022/11/03 07:24:51;;;;;;;1999.90;999.90;;;12.10;99.90;;;;;;5043078;28;20422;-65
2022/11/03 07:27:25;;;;;;;1999.90;999.90;;;12.10;99.90;;;;;;5052423;28;20426;-65
2022/11/03 07:29:53;;;;;;;1999.90;999.90;;;12.20;99.90;;;;;;5052896;28;20892;-65
2022/11/03 07:32:28;;;;;;;1999.90;999.90;;;12.30;99.90;;;;;;5052794;28;20451;-66
2022/11/03 07:35:03;;;;;;;1999.90;999.90;;;12.30;99.90;;;;;;5052862;28;20851;-66
2022/11/03 07:37:29;;;;;;;1999.90;999.90;;;12.40;99.90;;;;;;5052688;28;20547;-66
2022/11/03 07:39:57;;;;;;;1999.90;999.90;;;12.40;99.90;;;;;;5052660;28;20489;-66
2022/11/03 07:42:24;;;;;;;1999.90;999.90;;;12.50;99.90;;;;;;5052283;28;20273;-66
2022/11/03 07:44:51;;;;;;;1999.90;999.90;;;12.50;99.90;;;;;;5052533;28;20411;-65
2022/11/03 07:47:20;;;;;;;1999.90;999.90;;;12.60;99.90;;;;;;5052095;28;20423;-66
2022/11/03 07:49:47;;;;;;;1999.90;999.90;;;12.60;99.90;;;;;;5052089;28;20770;-65
2022/11/03 07:52:18;;;;;;;1999.90;999.90;;;12.70;99.90;;;;;;5052303;28;20410;-66
2022/11/03 07:54:44;;;;;;;1999.90;999.90;;;12.70;99.90;;;;;;5052196;28;20476;-66
2022/11/03 07:57:25;;;;;;;1999.90;999.90;;;12.70;99.90;;;;;;5051826;28;20502;-65
2022/11/03 07:59:55;;;;;;;1999.90;999.90;;;12.80;99.90;;;;;;5052442;28;20600;-66
2022/11/03 08:02:25;;;;;;;1999.90;999.90;;;12.80;99.90;;;;;;5052103;28;20449;-66
2022/11/03 08:04:51;;;;;;;1999.90;999.90;;;12.80;99.90;;;;;;5052094;28;20433;-66
2022/11/03 08:07:16;;;;;;;1999.90;999.90;;;12.80;99.90;;;;;;5051676;28;20850;-66
2022/11/03 08:09:42;;;;;;;1999.90;999.90;;;12.80;99.90;;;;;;5051705;28;20652;-65
2022/11/03 08:12:07;;;;;;;1999.90;999.90;;;12.90;99.90;;;;;;5051864;28;20615;-65
2022/11/03 08:14:34;;;;;;;1999.90;999.90;;;12.90;99.90;;;;;;5051841;28;20184;-66
2022/11/03 08:16:59;;;;;;;1999.90;999.90;;;13.00;99.90;;;;;;5051799;28;20194;-66
2022/11/03 08:19:25;;;;;;;1999.90;999.90;;;13.00;99.90;;;;;;5051760;28;20415;-66
2022/11/03 08:21:50;;;;;;;1999.90;999.90;;;13.00;99.90;;;;;;5051572;28;20175;-66
2022/11/03 08:24:16;;;;;;;1999.90;999.90;;;13.10;99.90;;;;;;5051839;28;20906;-66
2022/11/03 08:26:41;;;;;;;1999.90;999.90;;;13.00;99.90;;;;;;5051667;28;20178;-66
2022/11/03 08:29:07;;;;;;;1999.90;999.90;;;13.10;99.90;;;;;;5051935;28;20319;-66
2022/11/03 08:31:33;;;;;;;1999.90;999.90;;;13.20;99.90;;;;;;5052094;28;20556;-66
2022/11/03 08:33:58;;;;;;;1999.90;999.90;;;13.10;99.90;;;;;;5051744;28;20193;-66
2022/11/03 08:36:24;;;;;;;1999.90;999.90;;;13.10;99.90;;;;;;5051526;28;20210;-66
2022/11/03 08:38:49;;;;;;;1999.90;999.90;;;13.20;99.90;;;;;;5051443;28;20177;-66
2022/11/03 08:41:15;;;;;;;1999.90;999.90;;;13.20;99.90;;;;;;5051775;28;20200;-66
2022/11/03 08:43:40;;;;;;;1999.90;999.90;;;13.20;99.90;;;;;;5052156;28;20259;-65
2022/11/03 08:46:06;;;;;;;1999.90;999.90;;;13.20;99.90;;;;;;5051841;28;20169;-66
2022/11/03 08:48:32;;;;;;;1999.90;999.90;;;13.20;99.90;;;;;;5051441;28;20639;-66
2022/11/03 08:50:57;;;;;;;1999.90;999.90;;;13.30;99.90;;;;;;5052016;28;20179;-66
2022/11/03 08:53:24;;;;;;;1999.90;999.90;;;13.30;99.90;;;;;;5051518;28;20271;-66
2022/11/03 08:55:54;;;;;;;1999.90;999.90;;;13.30;99.90;;;;;;5051260;28;20200;-66
2022/11/03 08:58:20;;;;;;;1999.90;999.90;;;13.40;99.90;;;;;;5051330;28;20522;-66
2022/11/03 09:00:47;;;;;;;1999.90;999.90;;;13.40;99.90;;;;;;5051562;28;20416;-66
2022/11/03 09:03:12;;;;;;;1999.90;999.90;;;13.50;99.90;;;;;;5051362;28;20521;-67
2022/11/03 09:05:38;;;;;;;1999.90;999.90;;;13.50;99.90;;;;;;5051369;28;20418;-67
2022/11/03 09:08:04;;;;;;;1999.90;999.90;;;13.50;99.90;;;;;;5030327;28;20186;-66
2022/11/03 09:10:30;;;;;;;1999.90;999.90;;;13.50;99.90;;;;;;5030897;28;20193;-65
2022/11/03 09:12:55;;;;;;;1999.90;999.90;;;13.60;99.90;;;;;;5030803;28;20207;-65
2022/11/03 09:15:21;;;;;;;1999.90;999.90;;;13.60;99.90;;;;;;5031026;28;20447;-65
2022/11/03 09:17:47;;;;;;;1999.90;999.90;;;13.60;99.90;;;;;;5030945;28;20252;-66
2022/11/03 09:20:12;;;;;;;1999.90;999.90;;;13.60;99.90;;;;;;5030711;28;20182;-64
2022/11/03 09:22:38;;;;;;;1999.90;999.90;;;13.70;99.90;;;;;;5034169;28;20204;-65
2022/11/03 09:25:05;;;;;;;1999.90;999.90;;;13.90;99.90;;;;;;5034981;28;20215;-65
2022/11/03 09:27:30;;;;;;;1999.90;999.90;;;13.90;99.90;;;;;;5034478;28;20662;-66
2022/11/03 09:29:56;;;;;;;1999.90;999.90;;;13.90;99.90;;;;;;5035055;28;20408;-64
2022/11/03 09:32:22;;;;;;;1999.90;999.90;;;14.00;99.90;;;;;;5034861;28;20201;-65
2022/11/03 09:34:48;;;;;;;1999.90;999.90;;;14.00;99.90;;;;;;5034705;28;20219;-65
2022/11/03 09:37:14;;;;;;;1999.90;999.90;;;14.00;99.90;;;;;;5034343;28;20417;-65
2022/11/03 09:39:40;;;;;;;1999.90;999.90;;;14.10;99.90;;;;;;5034598;28;20251;-65
2022/11/03 09:42:06;;;;;;;1999.90;999.90;;;14.10;99.90;;;;;;5034524;28;20501;-65
2022/11/03 09:44:34;;;;;;;1999.90;999.90;;;14.00;99.90;;;;;;5034440;28;20925;-65
2022/11/03 09:47:00;;;;;;;1999.90;999.90;;;14.00;99.90;;;;;;5029747;28;20413;-67
2022/11/03 09:49:30;;;;;;;1999.90;999.90;;;14.00;99.90;;;;;;5033900;28;20414;-67
2022/11/03 09:51:56;;;;;;;1999.90;999.90;;;14.00;99.90;;;;;;5034928;28;20468;-68
2022/11/03 09:54:21;;;;;;;1999.90;999.90;;;14.00;99.90;;;;;;5033385;28;20941;-69
2022/11/03 09:56:47;;;;;;;1999.90;999.90;;;14.10;99.90;;;;;;5033609;28;20633;-67
2022/11/03 09:59:20;;;;;;;1999.90;999.90;;;14.10;99.90;;;;;;5033925;28;20783;-67
2022/11/03 10:01:48;;;;;;;1999.90;999.90;;;14.10;99.90;;;;;;5032628;28;20205;-68
2022/11/03 10:04:18;;;;;;;1999.90;999.90;;;14.10;99.90;;;;;;5033756;28;20431;-69
2022/11/03 10:06:44;;;;;;;1999.90;999.90;;;14.20;99.90;;;;;;5055070;28;20896;-68
2022/11/03 10:09:16;;;;;;;1999.90;999.90;;;14.20;99.90;;;;;;5065639;28;20421;-69
2022/11/03 10:11:43;;;;;;;1999.90;999.90;;;14.20;99.90;;;;;;5057297;28;20230;-70
2022/11/03 10:14:12;;;;;;;1999.90;999.90;;;14.30;99.90;;;;;;5066011;28;20467;-69
2022/11/03 10:16:40;;;;;;;1999.90;999.90;;;14.30;99.90;;;;;;5064577;28;20453;-69
2022/11/03 10:19:11;;;;;;;1999.90;999.90;;;14.30;99.90;;;;;;5057754;28;20404;-66
2022/11/03 10:21:38;;;;;;;1999.90;999.90;;;14.30;99.90;;;;;;5073483;28;20963;-65
2022/11/03 10:24:04;;;;;;;1999.90;999.90;;;14.30;99.90;;;;;;5064464;28;20524;-68
2022/11/03 10:26:46;;;;;;;1999.90;999.90;;;14.30;99.90;;;;;;5065214;28;20424;-68
2022/11/03 10:29:23;;;;;;;1999.90;999.90;;;14.40;99.90;;;;;;5073417;28;20402;-68
2022/11/03 10:31:54;;;;;;;1999.90;999.90;;;14.40;99.90;;;;;;5072704;28;20439;-69
2022/11/03 10:34:35;;;;;;;1999.90;999.90;;;14.40;99.90;;;;;;5073227;28;20431;-67
2022/11/03 10:37:23;;;;;;;1999.90;999.90;;;14.40;99.90;;;;;;5073056;28;20914;-67
2022/11/03 10:39:52;;;;;;;1999.90;999.90;;;14.40;99.90;;;;;;5071297;28;20458;-66
2022/11/03 10:42:27;;;;;;;1999.90;999.90;;;14.40;99.90;;;;;;5061090;28;20405;-66
2022/11/03 10:45:07;;;;;;;1999.90;999.90;;;14.40;99.90;;;;;;5071141;28;20752;-66
2022/11/03 10:47:33;;;;;;;1999.90;999.90;;;14.30;99.90;;;;;;5072173;28;20436;-66
2022/11/03 10:50:31;;;;;;;1999.90;999.90;;;14.30;99.90;;;;;;5072974;28;20817;-66
2022/11/03 10:52:57;;;;;;;1999.90;999.90;;;14.30;99.90;;;;;;5006820;28;20470;-67
2022/11/03 10:55:25;;;;;;;1999.90;999.90;;;14.40;99.90;;;;;;5072727;28;20453;-67
2022/11/03 10:57:54;;;;;;;1999.90;999.90;;;14.40;99.90;;;;;;5072685;28;20165;-66
2022/11/03 11:00:20;;;;;;;1999.90;999.90;;;14.50;99.90;;;;;;5072896;28;20441;-66
2022/11/03 11:02:47;;;;;;;1999.90;999.90;;;14.50;99.90;;;;;;5073369;28;20918;-66
2022/11/03 11:05:17;;;;;;;1999.90;999.90;;;14.50;99.90;;;;;;5073149;28;20163;-66
2022/11/03 11:07:44;;;;;;;1999.90;999.90;;;14.50;99.90;;;;;;5061404;28;20435;-66
2022/11/03 11:10:16;;;;;;;1999.90;999.90;;;14.50;99.90;;;;;;5030884;28;20461;-66
2022/11/03 11:13:21;;;;;;;1999.90;999.90;;;14.40;99.90;;;;;;5034529;28;20796;-66
2022/11/03 11:15:55;;;;;;;1999.90;999.90;;;14.40;99.90;;;;;;4941270;29;20467;-66
2022/11/03 11:18:29;;;;;;;1999.90;999.90;;;14.50;99.90;;;;;;4944213;29;20512;-66
2022/11/03 11:20:56;;;;;;;1999.90;999.90;;;14.50;99.90;;;;;;5019983;28;20766;-66
2022/11/03 11:23:28;;;;;;;1999.90;999.90;;;14.50;99.90;;;;;;5070188;28;20455;-66
2022/11/03 11:26:09;;;;;;;1999.90;999.90;;;14.50;99.90;;;;;;5070865;28;20460;-68
2022/11/03 11:28:34;;;;;;;1999.90;999.90;;;14.40;99.90;;;;;;5070676;28;20437;-66
2022/11/03 11:31:00;;;;;;;1999.90;999.90;;;14.40;99.90;;;;;;5069935;28;20497;-67
2022/11/03 11:33:32;;;;;;;1999.90;999.90;;;14.30;99.90;;;;;;5070830;28;20671;-68
2022/11/03 11:35:57;;;;;;;1999.90;999.90;;;14.30;99.90;;;;;;5070791;28;20235;-66
2022/11/03 11:38:48;;;;;;;1999.90;999.90;;;14.20;99.90;;;;;;5069875;28;20477;-66
2022/11/03 11:41:13;;;;;;;1999.90;999.90;;;14.10;99.90;;;;;;5070289;28;20166;-66
2022/11/03 11:43:39;;;;;;;1999.90;999.90;;;14.10;99.90;;;;;;5070029;28;20409;-66
2022/11/03 11:46:32;;;;;;;1999.90;999.90;;;14.10;99.90;;;;;;5069977;28;20181;-66
2022/11/03 11:49:01;;;;;;;1999.90;999.90;;;14.10;99.90;;;;;;5069943;28;20176;-66
2022/11/03 11:51:27;;;;;;;1999.90;999.90;;;14.10;99.90;;;;;;5070389;28;20400;-68
2022/11/03 11:53:53;;;;;;;1999.90;999.90;;;14.10;99.90;;;;;;5070042;28;20421;-67
2022/11/03 11:56:19;;;;;;;1999.90;999.90;;;14.10;99.90;;;;;;5070192;28;20448;-67
2022/11/03 11:58:49;;;;;;;1999.90;999.90;;;14.20;99.90;;;;;;5069671;28;20458;-67
2022/11/03 12:01:32;;;;;;;1999.90;999.90;;;14.20;99.90;;;;;;5069510;28;20954;-66
2022/11/03 12:04:01;;;;;;;1999.90;999.90;;;14.30;99.90;;;;;;5070221;28;20464;-66
2022/11/03 12:06:39;;;;;;;1999.90;999.90;;;14.40;99.90;;;;;;5069876;28;20398;-66
2022/11/03 12:09:06;;;;;;;1999.90;999.90;;;14.50;99.90;;;;;;5070030;28;20903;-66
2022/11/03 12:11:41;;;;;;;1999.90;999.90;;;14.50;99.90;;;;;;5069266;28;20904;-66
2022/11/03 12:14:20;;;;;;;1999.90;999.90;;;14.60;99.90;;;;;;5069674;28;20421;-66
2022/11/03 12:16:46;;;;;;;1999.90;999.90;;;14.60;99.90;;;;;;5069036;28;20938;-66
2022/11/03 12:19:32;;;;;;;1999.90;999.90;;;14.70;99.90;;;;;;5070180;28;20422;-66
2022/11/03 12:21:57;;;;;;;1999.90;999.90;;;14.70;99.90;;;;;;5068467;28;20412;-66
2022/11/03 12:24:35;;;;;;;1999.90;999.90;;;14.70;99.90;;;;;;5060664;28;20443;-66
2022/11/03 12:27:02;;;;;;;1999.90;999.90;;;14.70;99.90;;;;;;5060789;28;20174;-66
2022/11/03 12:29:28;;;;;;;1999.90;999.90;;;14.70;99.90;;;;;;5069373;28;20401;-66
2022/11/03 12:31:54;;;;;;;1999.90;999.90;;;14.70;99.90;;;;;;5069731;28;20409;-66
2022/11/03 12:34:20;;;;;;;1999.90;999.90;;;14.70;99.90;;;;;;5070190;28;20204;-68
2022/11/03 12:36:46;;;;;;;1999.90;999.90;;;14.70;99.90;;;;;;5068994;28;20812;-66